sensor_id;sensor_type;location;lat;lon;timestamp;temperature;humidity
59999;DHT22;45859;51.378;6.736;2022-11-20T00:00:56;-1.10;99.90
59999;DHT22;45859;51.378;6.736;2022-11-20T00:03:22;-1.10;99.90
59999;DHT22;45859;51.378;6.736;2022-11-20T00:05:48;-1.10;99.90
59999;DHT22;45859;51.378;6.736;2022-11-20T00:08:14;-1.10;99.90
59999;DHT22;45859;51.378;6.736;2022-11-20T00:10:40;-1.10;99.90
59999;DHT22;45859;51.378;6.736;2022-11-20T00:13:06;-1.10;99.90
59999;DHT22;45859;51.378;6.736;2022-11-20T00:15:33;-1.20;99.90
59999;DHT22;45859;51.378;6.736;2022-11-20T00:17:58;-1.20;99.90
59999;DHT22;45859;51.378;6.736;2022-11-20T00:20:24;-1.20;99.90
59999;DHT22;45859;51.378;6.736;2022-11-20T00:22:59;-1.20;99.90
59999;DHT22;45859;51.378;6.736;2022-11-20T00:25:25;-1.10;99.90
59999;DHT22;45859;51.378;6.736;2022-11-20T00:27:50;-1.20;99.90
59999;DHT22;45859;51.378;6.736;2022-11-20T00:30:16;-1.20;99.90
59999;DHT22;45859;51.378;6.736;2022-11-20T00:32:42;-1.10;99.90
59999;DHT22;45859;51.378;6.736;2022-11-20T00:35:08;-1.00;99.90
59999;DHT22;45859;51.378;6.736;2022-11-20T00:37:33;-0.90;99.90
59999;DHT22;45859;51.378;6.736;2022-11-20T00:39:59;-0.80;99.90
59999;DHT22;45859;51.378;6.736;2022-11-20T00:42:24;-0.80;99.90
59999;DHT22;45859;51.378;6.736;2022-11-20T00:44:50;-0.70;99.90
59999;DHT22;45859;51.378;6.736;2022-11-20T00:47:15;-0.50;99.90
59999;DHT22;45859;51.378;6.736;2022-11-20T00:49:41;-0.40;99.90
59999;DHT22;45859;51.378;6.736;2022-11-20T00:52:07;-0.30;99.90
59999;DHT22;45859;51.378;6.736;2022-11-20T00:54:35;-0.20;99.90
59999;DHT22;45859;51.378;6.736;2022-11-20T00:57:04;-0.20;99.90
59999;DHT22;45859;51.378;6.736;2022-11-20T00:59:30;-0.10;99.90
59999;DHT22;45859;51.378;6.736;2022-11-20T01:01:55;0.00;99.90
59999;DHT22;45859;51.378;6.736;2022-11-20T01:04:21;0.10;99.90
59999;DHT22;45859;51.378;6.736;2022-11-20T01:06:49;0.20;99.90
59999;DHT22;45859;51.378;6.736;2022-11-20T01:09:21;0.20;99.90
59999;DHT22;45859;51.378;6.736;2022-11-20T01:11:46;0.30;99.90
59999;DHT22;45859;51.378;6.736;2022-11-20T01:14:14;0.30;99.90
59999;DHT22;45859;51.378;6.736;2022-11-20T01:16:46;0.40;99.90
59999;DHT22;45859;51.378;6.736;2022-11-20T01:19:21;0.40;99.90
59999;DHT22;45859;51.378;6.736;2022-11-20T01:21:52;0.40;99.90
59999;DHT22;45859;51.378;6.736;2022-11-20T01:24:19;0.50;99.90
59999;DHT22;45859;51.378;6.736;2022-11-20T01:26:47;0.50;99.90
59999;DHT22;45859;51.378;6.736;2022-11-20T01:29:16;0.50;99.90
59999;DHT22;45859;51.378;6.736;2022-11-20T01:31:42;0.50;99.90
59999;DHT22;45859;51.378;6.736;2022-11-20T01:34:14;0.50;99.90
59999;DHT22;45859;51.378;6.736;2022-11-20T01:36:40;0.60;99.90
59999;DHT22;45859;51.378;6.736;2022-11-20T01:39:16;0.60;99.90
59999;DHT22;45859;51.378;6.736;2022-11-20T01:41:43;0.70;99.90
59999;DHT22;45859;51.378;6.736;2022-11-20T01:44:54;0.70;99.90
59999;DHT22;45859;51.378;6.736;2022-11-20T01:47:36;0.70;99.90
59999;DHT22;45859;51.378;6.736;2022-11-20T01:50:11;0.80;99.90
59999;DHT22;45859;51.378;6.736;2022-11-20T01:52:49;0.80;99.90
59999;DHT22;45859;51.378;6.736;2022-11-20T01:55:22;0.80;99.90
59999;DHT22;45859;51.378;6.736;2022-11-20T01:57:49;0.90;99.90
59999;DHT22;45859;51.378;6.736;2022-11-20T02:00:17;0.90;99.90
59999;DHT22;45859;51.378;6.736;2022-11-20T02:02:51;0.90;99.90
59999;DHT22;45859;51.378;6.736;2022-11-20T02:05:33;1.00;99.90
59999;DHT22;45859;51.378;6.736;2022-11-20T02:08:03;0.90;99.90
59999;DHT22;45859;51.378;6.736;2022-11-20T02:10:29;1.00;99.90
59999;DHT22;45859;51.378;6.736;2022-11-20T02:15:22;1.00;99.90
59999;DHT22;45859;51.378;6.736;2022-11-20T02:17:48;1.00;99.90
59999;DHT22;45859;51.378;6.736;2022-11-20T02:20:14;1.10;99.90
59999;DHT22;45859;51.378;6.736;2022-11-20T02:23:14;1.10;99.90
59999;DHT22;45859;51.378;6.736;2022-11-20T02:25:42;1.10;99.90
59999;DHT22;45859;51.378;6.736;2022-11-20T02:28:09;1.20;99.90
59999;DHT22;45859;51.378;6.736;2022-11-20T02:30:35;1.10;99.90
59999;DHT22;45859;51.378;6.736;2022-11-20T02:33:01;1.20;99.90
59999;DHT22;45859;51.378;6.736;2022-11-20T02:37:54;1.20;99.90
59999;DHT22;45859;51.378;6.736;2022-11-20T02:40:21;1.20;99.90
59999;DHT22;45859;51.378;6.736;2022-11-20T02:42:47;1.20;99.90
59999;DHT22;45859;51.378;6.736;2022-11-20T02:45:12;1.30;99.90
59999;DHT22;45859;51.378;6.736;2022-11-20T02:47:38;1.40;99.90
59999;DHT22;45859;51.378;6.736;2022-11-20T02:50:05;1.30;99.90
59999;DHT22;45859;51.378;6.736;2022-11-20T02:52:30;1.40;99.90
59999;DHT22;45859;51.378;6.736;2022-11-20T02:54:56;1.40;99.90
59999;DHT22;45859;51.378;6.736;2022-11-20T02:57:22;1.40;99.90
59999;DHT22;45859;51.378;6.736;2022-11-20T02:59:47;1.40;99.90
59999;DHT22;45859;51.378;6.736;2022-11-20T03:02:13;1.40;99.90
59999;DHT22;45859;51.378;6.736;2022-11-20T03:04:39;1.40;99.90
59999;DHT22;45859;51.378;6.736;2022-11-20T03:07:04;1.40;99.90
59999;DHT22;45859;51.378;6.736;2022-11-20T03:09:30;1.40;99.90
59999;DHT22;45859;51.378;6.736;2022-11-20T03:11:56;1.40;99.90
59999;DHT22;45859;51.378;6.736;2022-11-20T03:14:21;1.50;99.90
59999;DHT22;45859;51.378;6.736;2022-11-20T03:16:47;1.50;99.90
59999;DHT22;45859;51.378;6.736;2022-11-20T03:19:13;1.50;99.90
59999;DHT22;45859;51.378;6.736;2022-11-20T03:21:38;1.50;99.90
59999;DHT22;45859;51.378;6.736;2022-11-20T03:24:04;1.40;99.90
59999;DHT22;45859;51.378;6.736;2022-11-20T03:26:30;1.50;99.90
59999;DHT22;45859;51.378;6.736;2022-11-20T03:28:57;1.50;99.90
59999;DHT22;45859;51.378;6.736;2022-11-20T03:31:35;1.50;99.90
59999;DHT22;45859;51.378;6.736;2022-11-20T03:34:02;1.50;99.90
59999;DHT22;45859;51.378;6.736;2022-11-20T03:36:28;1.60;99.90
59999;DHT22;45859;51.378;6.736;2022-11-20T03:38:55;1.60;99.90
59999;DHT22;45859;51.378;6.736;2022-11-20T03:41:23;1.60;99.90
59999;DHT22;45859;51.378;6.736;2022-11-20T03:43:54;1.70;99.90
59999;DHT22;45859;51.378;6.736;2022-11-20T03:46:21;1.70;99.90
59999;DHT22;45859;51.378;6.736;2022-11-20T03:48:47;1.80;99.90
59999;DHT22;45859;51.378;6.736;2022-11-20T03:53:41;1.80;99.90
59999;DHT22;45859;51.378;6.736;2022-11-20T03:56:07;1.90;99.90
59999;DHT22;45859;51.378;6.736;2022-11-20T03:58:35;1.90;99.90
59999;DHT22;45859;51.378;6.736;2022-11-20T04:01:09;1.90;99.90
59999;DHT22;45859;51.378;6.736;2022-11-20T04:03:36;2.00;99.90
59999;DHT22;45859;51.378;6.736;2022-11-20T04:06:17;1.90;99.90
59999;DHT22;45859;51.378;6.736;2022-11-20T04:08:43;1.90;99.90
59999;DHT22;45859;51.378;6.736;2022-11-20T04:11:17;1.90;99.90
59999;DHT22;45859;51.378;6.736;2022-11-20T04:13:46;1.90;99.90
59999;DHT22;45859;51.378;6.736;2022-11-20T04:16:13;2.00;99.90
59999;DHT22;45859;51.378;6.736;2022-11-20T04:18:39;2.00;99.90
59999;DHT22;45859;51.378;6.736;2022-11-20T04:21:05;2.10;99.90
59999;DHT22;45859;51.378;6.736;2022-11-20T04:23:31;2.10;99.90
59999;DHT22;45859;51.378;6.736;2022-11-20T04:26:09;2.10;99.90
59999;DHT22;45859;51.378;6.736;2022-11-20T04:28:35;2.10;99.90
59999;DHT22;45859;51.378;6.736;2022-11-20T04:31:08;2.10;99.90
59999;DHT22;45859;51.378;6.736;2022-11-20T04:33:34;2.10;99.90
59999;DHT22;45859;51.378;6.736;2022-11-20T04:36:09;2.10;99.90
59999;DHT22;45859;51.378;6.736;2022-11-20T04:38:35;2.00;99.90
59999;DHT22;45859;51.378;6.736;2022-11-20T04:41:03;1.90;99.90
59999;DHT22;45859;51.378;6.736;2022-11-20T04:43:29;1.90;99.90
59999;DHT22;45859;51.378;6.736;2022-11-20T04:45:56;1.80;99.90
59999;DHT22;45859;51.378;6.736;2022-11-20T04:48:22;1.80;99.90
59999;DHT22;45859;51.378;6.736;2022-11-20T04:50:47;1.80;99.90
59999;DHT22;45859;51.378;6.736;2022-11-20T04:53:13;1.80;99.90
59999;DHT22;45859;51.378;6.736;2022-11-20T04:55:39;1.90;99.90
59999;DHT22;45859;51.378;6.736;2022-11-20T04:58:05;1.90;99.90
59999;DHT22;45859;51.378;6.736;2022-11-20T05:00:30;1.90;99.90
59999;DHT22;45859;51.378;6.736;2022-11-20T05:02:56;1.90;99.90
59999;DHT22;45859;51.378;6.736;2022-11-20T05:05:21;1.80;99.90
59999;DHT22;45859;51.378;6.736;2022-11-20T05:07:47;1.80;99.90
59999;DHT22;45859;51.378;6.736;2022-11-20T05:10:13;1.80;99.90
59999;DHT22;45859;51.378;6.736;2022-11-20T05:12:38;1.80;99.90
59999;DHT22;45859;51.378;6.736;2022-11-20T05:15:04;1.80;99.90
59999;DHT22;45859;51.378;6.736;2022-11-20T05:17:30;1.80;99.90
59999;DHT22;45859;51.378;6.736;2022-11-20T05:19:55;1.90;99.90
59999;DHT22;45859;51.378;6.736;2022-11-20T05:22:21;1.90;99.90
59999;DHT22;45859;51.378;6.736;2022-11-20T05:24:47;1.80;99.90
59999;DHT22;45859;51.378;6.736;2022-11-20T05:27:12;1.90;99.90
59999;DHT22;45859;51.378;6.736;2022-11-20T05:29:38;1.80;99.90
59999;DHT22;45859;51.378;6.736;2022-11-20T05:32:04;1.90;99.90
59999;DHT22;45859;51.378;6.736;2022-11-20T05:34:31;1.90;99.90
59999;DHT22;45859;51.378;6.736;2022-11-20T05:36:57;1.90;99.90
59999;DHT22;45859;51.378;6.736;2022-11-20T05:39:22;1.90;99.90
59999;DHT22;45859;51.378;6.736;2022-11-20T05:41:48;1.90;99.90
59999;DHT22;45859;51.378;6.736;2022-11-20T05:44:33;1.90;99.90
59999;DHT22;45859;51.378;6.736;2022-11-20T05:46:59;1.90;99.90
59999;DHT22;45859;51.378;6.736;2022-11-20T05:49:24;2.00;99.90
59999;DHT22;45859;51.378;6.736;2022-11-20T05:51:50;2.00;99.90
59999;DHT22;45859;51.378;6.736;2022-11-20T05:54:16;2.00;99.90
59999;DHT22;45859;51.378;6.736;2022-11-20T05:56:41;2.00;99.90
59999;DHT22;45859;51.378;6.736;2022-11-20T05:59:07;2.00;99.90
59999;DHT22;45859;51.378;6.736;2022-11-20T06:01:32;2.00;99.90
59999;DHT22;45859;51.378;6.736;2022-11-20T06:03:58;2.00;99.90
59999;DHT22;45859;51.378;6.736;2022-11-20T06:06:24;2.00;99.90
59999;DHT22;45859;51.378;6.736;2022-11-20T06:08:51;2.00;99.90
59999;DHT22;45859;51.378;6.736;2022-11-20T06:11:17;2.00;99.90
59999;DHT22;45859;51.378;6.736;2022-11-20T06:13:43;2.00;99.90
59999;DHT22;45859;51.378;6.736;2022-11-20T06:16:10;2.10;99.90
59999;DHT22;45859;51.378;6.736;2022-11-20T06:18:37;2.30;99.90
59999;DHT22;45859;51.378;6.736;2022-11-20T06:21:08;2.00;99.90
59999;DHT22;45859;51.378;6.736;2022-11-20T06:23:35;2.00;99.90
59999;DHT22;45859;51.378;6.736;2022-11-20T06:26:02;2.00;99.90
59999;DHT22;45859;51.378;6.736;2022-11-20T06:28:29;2.00;99.90
59999;DHT22;45859;51.378;6.736;2022-11-20T06:30:54;2.00;99.90
59999;DHT22;45859;51.378;6.736;2022-11-20T06:33:20;2.00;99.90
59999;DHT22;45859;51.378;6.736;2022-11-20T06:35:45;2.10;99.90
59999;DHT22;45859;51.378;6.736;2022-11-20T06:38:11;2.10;99.90
59999;DHT22;45859;51.378;6.736;2022-11-20T06:40:40;2.10;99.90
59999;DHT22;45859;51.378;6.736;2022-11-20T06:43:06;2.10;99.90
59999;DHT22;45859;51.378;6.736;2022-11-20T06:45:31;2.10;99.90
59999;DHT22;45859;51.378;6.736;2022-11-20T06:47:57;2.10;99.90
59999;DHT22;45859;51.378;6.736;2022-11-20T06:50:23;2.10;99.90
59999;DHT22;45859;51.378;6.736;2022-11-20T06:52:49;2.10;99.90
59999;DHT22;45859;51.378;6.736;2022-11-20T06:55:15;2.10;99.90
59999;DHT22;45859;51.378;6.736;2022-11-20T06:57:40;2.10;99.90
59999;DHT22;45859;51.378;6.736;2022-11-20T07:00:06;2.20;99.90
59999;DHT22;45859;51.378;6.736;2022-11-20T07:02:32;2.20;99.90
59999;DHT22;45859;51.378;6.736;2022-11-20T07:04:57;2.20;99.90
59999;DHT22;45859;51.378;6.736;2022-11-20T07:07:23;2.20;99.90
59999;DHT22;45859;51.378;6.736;2022-11-20T07:09:49;3.00;99.90
59999;DHT22;45859;51.378;6.736;2022-11-20T07:12:14;2.30;99.90
59999;DHT22;45859;51.378;6.736;2022-11-20T07:14:40;2.40;99.90
59999;DHT22;45859;51.378;6.736;2022-11-20T07:17:05;2.30;99.90
59999;DHT22;45859;51.378;6.736;2022-11-20T07:19:31;2.30;99.90
59999;DHT22;45859;51.378;6.736;2022-11-20T07:21:56;2.30;99.90
59999;DHT22;45859;51.378;6.736;2022-11-20T07:24:22;2.30;99.90
59999;DHT22;45859;51.378;6.736;2022-11-20T07:26:48;2.40;99.90
59999;DHT22;45859;51.378;6.736;2022-11-20T07:29:15;2.40;99.90
59999;DHT22;45859;51.378;6.736;2022-11-20T07:31:41;2.40;99.90
59999;DHT22;45859;51.378;6.736;2022-11-20T07:34:07;2.40;99.90
59999;DHT22;45859;51.378;6.736;2022-11-20T07:36:33;2.40;99.90
59999;DHT22;45859;51.378;6.736;2022-11-20T07:38:58;2.30;99.90
59999;DHT22;45859;51.378;6.736;2022-11-20T07:41:24;2.30;99.90
59999;DHT22;45859;51.378;6.736;2022-11-20T07:43:49;2.20;99.90
59999;DHT22;45859;51.378;6.736;2022-11-20T07:46:15;2.20;99.90
59999;DHT22;45859;51.378;6.736;2022-11-20T07:48:40;2.30;99.90
59999;DHT22;45859;51.378;6.736;2022-11-20T07:51:06;2.30;99.90
59999;DHT22;45859;51.378;6.736;2022-11-20T07:53:32;2.30;99.90
59999;DHT22;45859;51.378;6.736;2022-11-20T07:56:01;2.40;99.90
59999;DHT22;45859;51.378;6.736;2022-11-20T07:58:29;2.40;99.90
59999;DHT22;45859;51.378;6.736;2022-11-20T08:00:55;2.40;99.90
59999;DHT22;45859;51.378;6.736;2022-11-20T08:03:21;2.50;99.90
59999;DHT22;45859;51.378;6.736;2022-11-20T08:05:46;2.50;99.90
59999;DHT22;45859;51.378;6.736;2022-11-20T08:08:12;2.50;99.90
59999;DHT22;45859;51.378;6.736;2022-11-20T08:10:38;2.50;99.90
59999;DHT22;45859;51.378;6.736;2022-11-20T08:13:03;2.60;99.90
59999;DHT22;45859;51.378;6.736;2022-11-20T08:15:49;4.70;99.90
59999;DHT22;45859;51.378;6.736;2022-11-20T08:18:18;3.30;99.90
59999;DHT22;45859;51.378;6.736;2022-11-20T08:20:44;2.60;99.90
59999;DHT22;45859;51.378;6.736;2022-11-20T08:23:10;2.70;99.90
59999;DHT22;45859;51.378;6.736;2022-11-20T08:25:37;2.80;99.90
59999;DHT22;45859;51.378;6.736;2022-11-20T08:28:05;2.80;99.90
59999;DHT22;45859;51.378;6.736;2022-11-20T08:30:31;2.80;99.90
59999;DHT22;45859;51.378;6.736;2022-11-20T08:33:02;2.90;99.90
59999;DHT22;45859;51.378;6.736;2022-11-20T08:35:28;4.10;99.90
59999;DHT22;45859;51.378;6.736;2022-11-20T08:37:57;3.00;99.90
59999;DHT22;45859;51.378;6.736;2022-11-20T08:40:23;3.00;99.90
59999;DHT22;45859;51.378;6.736;2022-11-20T08:42:52;3.00;99.90
59999;DHT22;45859;51.378;6.736;2022-11-20T08:45:18;3.10;99.90
59999;DHT22;45859;51.378;6.736;2022-11-20T08:47:45;3.10;99.90
59999;DHT22;45859;51.378;6.736;2022-11-20T08:50:13;3.10;99.90
59999;DHT22;45859;51.378;6.736;2022-11-20T08:52:38;3.20;99.90
59999;DHT22;45859;51.378;6.736;2022-11-20T08:55:05;3.20;99.90
59999;DHT22;45859;51.378;6.736;2022-11-20T08:57:35;3.20;99.90
59999;DHT22;45859;51.378;6.736;2022-11-20T09:00:05;3.30;99.90
59999;DHT22;45859;51.378;6.736;2022-11-20T09:02:31;3.30;99.90
59999;DHT22;45859;51.378;6.736;2022-11-20T09:04:57;3.40;99.90
59999;DHT22;45859;51.378;6.736;2022-11-20T09:07:23;3.40;99.90
59999;DHT22;45859;51.378;6.736;2022-11-20T09:09:49;3.50;99.90
59999;DHT22;45859;51.378;6.736;2022-11-20T09:12:14;3.50;99.90
59999;DHT22;45859;51.378;6.736;2022-11-20T09:14:40;3.50;99.90
59999;DHT22;45859;51.378;6.736;2022-11-20T09:17:06;3.60;99.90
59999;DHT22;45859;51.378;6.736;2022-11-20T09:19:33;3.80;99.90
59999;DHT22;45859;51.378;6.736;2022-11-20T09:21:59;3.70;99.90
59999;DHT22;45859;51.378;6.736;2022-11-20T09:24:26;3.80;99.90
59999;DHT22;45859;51.378;6.736;2022-11-20T09:26:51;3.80;99.90
59999;DHT22;45859;51.378;6.736;2022-11-20T09:29:17;3.80;99.90
59999;DHT22;45859;51.378;6.736;2022-11-20T09:31:43;3.90;99.90
59999;DHT22;45859;51.378;6.736;2022-11-20T09:34:08;4.00;99.90
59999;DHT22;45859;51.378;6.736;2022-11-20T09:36:37;4.00;99.90
59999;DHT22;45859;51.378;6.736;2022-11-20T09:39:06;4.10;99.90
59999;DHT22;45859;51.378;6.736;2022-11-20T09:52:49;4.00;99.90
59999;DHT22;45859;51.378;6.736;2022-11-20T09:55:19;4.10;99.90
59999;DHT22;45859;51.378;6.736;2022-11-20T09:57:47;4.20;99.90
59999;DHT22;45859;51.378;6.736;2022-11-20T10:00:14;4.40;99.90
59999;DHT22;45859;51.378;6.736;2022-11-20T10:03:11;4.50;99.90
59999;DHT22;45859;51.378;6.736;2022-11-20T10:05:51;4.50;99.90
59999;DHT22;45859;51.378;6.736;2022-11-20T10:16:42;4.30;99.90
59999;DHT22;45859;51.378;6.736;2022-11-20T10:22:24;4.30;99.90
59999;DHT22;45859;51.378;6.736;2022-11-20T10:24:56;4.20;99.90
59999;DHT22;45859;51.378;6.736;2022-11-20T10:30:16;4.40;99.90
59999;DHT22;45859;51.378;6.736;2022-11-20T10:32:48;4.40;99.90
59999;DHT22;45859;51.378;6.736;2022-11-20T10:37:56;4.50;99.90
59999;DHT22;45859;51.378;6.736;2022-11-20T10:40:43;4.40;99.90
59999;DHT22;45859;51.378;6.736;2022-11-20T10:43:16;4.50;99.90
59999;DHT22;45859;51.378;6.736;2022-11-20T10:45:59;4.40;99.90
59999;DHT22;45859;51.378;6.736;2022-11-20T10:48:27;4.50;99.90
59999;DHT22;45859;51.378;6.736;2022-11-20T10:51:12;4.70;99.90
59999;DHT22;45859;51.378;6.736;2022-11-20T10:56:41;4.70;99.90
59999;DHT22;45859;51.378;6.736;2022-11-20T10:59:41;4.60;99.90
59999;DHT22;45859;51.378;6.736;2022-11-20T11:02:21;4.70;99.90
59999;DHT22;45859;51.378;6.736;2022-11-20T11:04:54;4.80;99.90
59999;DHT22;45859;51.378;6.736;2022-11-20T11:07:50;4.70;99.90
59999;DHT22;45859;51.378;6.736;2022-11-20T11:13:44;4.70;99.90
59999;DHT22;45859;51.378;6.736;2022-11-20T11:16:24;4.80;99.90
59999;DHT22;45859;51.378;6.736;2022-11-20T11:18:50;4.80;99.90
59999;DHT22;45859;51.378;6.736;2022-11-20T11:21:25;5.50;99.90
59999;DHT22;45859;51.378;6.736;2022-11-20T11:24:03;4.60;99.90
59999;DHT22;45859;51.378;6.736;2022-11-20T11:26:29;4.60;99.90
59999;DHT22;45859;51.378;6.736;2022-11-20T11:29:01;4.70;99.90
59999;DHT22;45859;51.378;6.736;2022-11-20T11:31:30;4.90;99.90
59999;DHT22;45859;51.378;6.736;2022-11-20T11:34:12;5.60;99.90
59999;DHT22;45859;51.378;6.736;2022-11-20T11:36:38;5.10;99.90
59999;DHT22;45859;51.378;6.736;2022-11-20T11:39:08;5.20;99.90
59999;DHT22;45859;51.378;6.736;2022-11-20T11:41:36;5.20;99.90
59999;DHT22;45859;51.378;6.736;2022-11-20T11:44:30;5.90;99.90
59999;DHT22;45859;51.378;6.736;2022-11-20T11:55:45;4.80;99.90
59999;DHT22;45859;51.378;6.736;2022-11-20T12:07:29;4.90;99.90
59999;DHT22;45859;51.378;6.736;2022-11-20T12:10:00;5.00;99.90
59999;DHT22;45859;51.378;6.736;2022-11-20T12:12:39;5.00;99.90
59999;DHT22;45859;51.378;6.736;2022-11-20T12:15:12;5.10;99.90
59999;DHT22;45859;51.378;6.736;2022-11-20T12:17:41;5.20;99.90
59999;DHT22;45859;51.378;6.736;2022-11-20T12:20:16;5.10;99.90
59999;DHT22;45859;51.378;6.736;2022-11-20T12:22:55;5.10;99.90
59999;DHT22;45859;51.378;6.736;2022-11-20T12:25:22;5.10;99.90
59999;DHT22;45859;51.378;6.736;2022-11-20T12:28:24;5.20;99.90
59999;DHT22;45859;51.378;6.736;2022-11-20T12:39:12;5.20;99.90
59999;DHT22;45859;51.378;6.736;2022-11-20T12:53:37;5.30;99.90
59999;DHT22;45859;51.378;6.736;2022-11-20T13:01:32;5.20;99.90
59999;DHT22;45859;51.378;6.736;2022-11-20T13:04:16;5.20;99.90
59999;DHT22;45859;51.378;6.736;2022-11-20T13:06:44;5.20;99.90
59999;DHT22;45859;51.378;6.736;2022-11-20T13:09:13;5.20;99.90
59999;DHT22;45859;51.378;6.736;2022-11-20T13:17:04;5.10;99.90
59999;DHT22;45859;51.378;6.736;2022-11-20T13:19:31;5.00;99.90
59999;DHT22;45859;51.378;6.736;2022-11-20T13:21:57;4.90;99.90
59999;DHT22;45859;51.378;6.736;2022-11-20T13:24:26;4.80;99.90
59999;DHT22;45859;51.378;6.736;2022-11-20T13:29:27;4.70;99.90
59999;DHT22;45859;51.378;6.736;2022-11-20T13:32:15;4.60;99.90
59999;DHT22;45859;51.378;6.736;2022-11-20T13:34:55;4.50;99.90
59999;DHT22;45859;51.378;6.736;2022-11-20T13:37:30;4.90;99.90
59999;DHT22;45859;51.378;6.736;2022-11-20T13:42:56;4.50;99.90
59999;DHT22;45859;51.378;6.736;2022-11-20T13:45:32;4.50;99.90
59999;DHT22;45859;51.378;6.736;2022-11-20T13:48:04;4.50;99.90
59999;DHT22;45859;51.378;6.736;2022-11-20T14:01:21;4.50;99.90
59999;DHT22;45859;51.378;6.736;2022-11-20T14:03:48;4.60;99.90
59999;DHT22;45859;51.378;6.736;2022-11-20T14:08:48;4.60;99.90
59999;DHT22;45859;51.378;6.736;2022-11-20T14:13:58;4.60;99.90
59999;DHT22;45859;51.378;6.736;2022-11-20T14:16:27;4.60;99.90
59999;DHT22;45859;51.378;6.736;2022-11-20T14:18:54;4.60;99.90
59999;DHT22;45859;51.378;6.736;2022-11-20T14:21:28;4.70;99.90
59999;DHT22;45859;51.378;6.736;2022-11-20T14:24:06;4.60;99.90
59999;DHT22;45859;51.378;6.736;2022-11-20T14:26:32;4.70;99.90
59999;DHT22;45859;51.378;6.736;2022-11-20T14:28:58;4.70;99.90
59999;DHT22;45859;51.378;6.736;2022-11-20T14:31:26;4.60;99.90
59999;DHT22;45859;51.378;6.736;2022-11-20T14:33:54;4.70;99.90
59999;DHT22;45859;51.378;6.736;2022-11-20T14:36:22;4.70;99.90
59999;DHT22;45859;51.378;6.736;2022-11-20T14:38:49;4.70;99.90
59999;DHT22;45859;51.378;6.736;2022-11-20T14:41:23;4.70;99.90
59999;DHT22;45859;51.378;6.736;2022-11-20T14:44:09;4.60;99.90
59999;DHT22;45859;51.378;6.736;2022-11-20T14:46:35;4.60;99.90
59999;DHT22;45859;51.378;6.736;2022-11-20T14:49:01;5.10;99.90
59999;DHT22;45859;51.378;6.736;2022-11-20T14:51:39;4.60;99.90
59999;DHT22;45859;51.378;6.736;2022-11-20T14:54:20;4.60;99.90
59999;DHT22;45859;51.378;6.736;2022-11-20T14:56:59;4.60;99.90
59999;DHT22;45859;51.378;6.736;2022-11-20T14:59:32;4.60;99.90
59999;DHT22;45859;51.378;6.736;2022-11-20T15:02:05;4.60;99.90
59999;DHT22;45859;51.378;6.736;2022-11-20T15:04:31;4.60;99.90
59999;DHT22;45859;51.378;6.736;2022-11-20T15:06:59;4.60;99.90
59999;DHT22;45859;51.378;6.736;2022-11-20T15:09:25;4.60;99.90
59999;DHT22;45859;51.378;6.736;2022-11-20T15:11:59;4.60;99.90
59999;DHT22;45859;51.378;6.736;2022-11-20T15:14:27;4.60;99.90
59999;DHT22;45859;51.378;6.736;2022-11-20T15:16:54;4.90;99.90
59999;DHT22;45859;51.378;6.736;2022-11-20T15:19:24;4.60;99.90
59999;DHT22;45859;51.378;6.736;2022-11-20T15:21:50;4.60;99.90
59999;DHT22;45859;51.378;6.736;2022-11-20T15:24:16;4.60;99.90
59999;DHT22;45859;51.378;6.736;2022-11-20T15:26:42;4.60;99.90
59999;DHT22;45859;51.378;6.736;2022-11-20T15:29:12;4.60;99.90
59999;DHT22;45859;51.378;6.736;2022-11-20T15:31:39;4.60;99.90
59999;DHT22;45859;51.378;6.736;2022-11-20T15:34:12;4.60;99.90
59999;DHT22;45859;51.378;6.736;2022-11-20T15:36:39;4.60;99.90
59999;DHT22;45859;51.378;6.736;2022-11-20T15:39:05;4.70;99.90
59999;DHT22;45859;51.378;6.736;2022-11-20T15:41:33;4.70;99.90
59999;DHT22;45859;51.378;6.736;2022-11-20T15:43:59;4.70;99.90
59999;DHT22;45859;51.378;6.736;2022-11-20T15:46:30;4.60;99.90
59999;DHT22;45859;51.378;6.736;2022-11-20T15:48:59;6.50;99.90
59999;DHT22;45859;51.378;6.736;2022-11-20T15:51:34;5.60;99.90
59999;DHT22;45859;51.378;6.736;2022-11-20T15:54:00;4.60;99.90
59999;DHT22;45859;51.378;6.736;2022-11-20T15:56:27;4.60;99.90
59999;DHT22;45859;51.378;6.736;2022-11-20T15:58:52;4.60;99.90
59999;DHT22;45859;51.378;6.736;2022-11-20T16:01:22;5.00;99.90
59999;DHT22;45859;51.378;6.736;2022-11-20T16:03:48;5.10;99.90
59999;DHT22;45859;51.378;6.736;2022-11-20T16:06:14;4.70;99.90
59999;DHT22;45859;51.378;6.736;2022-11-20T16:08:41;4.70;99.90
59999;DHT22;45859;51.378;6.736;2022-11-20T16:11:07;4.70;99.90
59999;DHT22;45859;51.378;6.736;2022-11-20T16:13:35;4.70;99.90
59999;DHT22;45859;51.378;6.736;2022-11-20T16:16:22;4.70;99.90
59999;DHT22;45859;51.378;6.736;2022-11-20T16:18:49;4.80;99.90
59999;DHT22;45859;51.378;6.736;2022-11-20T16:21:14;4.80;99.90
59999;DHT22;45859;51.378;6.736;2022-11-20T16:23:41;4.80;99.90
59999;DHT22;45859;51.378;6.736;2022-11-20T16:26:15;4.80;99.90
59999;DHT22;45859;51.378;6.736;2022-11-20T16:28:45;4.80;99.90
59999;DHT22;45859;51.378;6.736;2022-11-20T16:31:13;4.80;99.90
59999;DHT22;45859;51.378;6.736;2022-11-20T16:33:39;4.80;99.90
59999;DHT22;45859;51.378;6.736;2022-11-20T16:36:11;5.40;99.90
59999;DHT22;45859;51.378;6.736;2022-11-20T16:38:37;4.80;99.90
59999;DHT22;45859;51.378;6.736;2022-11-20T16:41:03;4.80;99.90
59999;DHT22;45859;51.378;6.736;2022-11-20T16:43:29;4.90;99.90
59999;DHT22;45859;51.378;6.736;2022-11-20T16:45:54;4.90;99.90
59999;DHT22;45859;51.378;6.736;2022-11-20T16:48:20;4.90;99.90
59999;DHT22;45859;51.378;6.736;2022-11-20T16:50:52;4.90;99.90
59999;DHT22;45859;51.378;6.736;2022-11-20T16:53:19;4.90;99.90
59999;DHT22;45859;51.378;6.736;2022-11-20T16:55:46;5.00;99.90
59999;DHT22;45859;51.378;6.736;2022-11-20T16:58:12;4.90;99.90
59999;DHT22;45859;51.378;6.736;2022-11-20T17:00:38;5.00;99.90
59999;DHT22;45859;51.378;6.736;2022-11-20T17:03:05;5.00;99.90
59999;DHT22;45859;51.378;6.736;2022-11-20T17:05:31;5.00;99.90
59999;DHT22;45859;51.378;6.736;2022-11-20T17:07:57;5.00;99.90
59999;DHT22;45859;51.378;6.736;2022-11-20T17:10:22;5.10;99.90
59999;DHT22;45859;51.378;6.736;2022-11-20T17:12:48;5.10;99.90
59999;DHT22;45859;51.378;6.736;2022-11-20T17:15:13;5.10;99.90
59999;DHT22;45859;51.378;6.736;2022-11-20T17:17:39;5.10;99.90
59999;DHT22;45859;51.378;6.736;2022-11-20T17:20:05;5.10;99.90
59999;DHT22;45859;51.378;6.736;2022-11-20T17:22:31;5.20;99.90
59999;DHT22;45859;51.378;6.736;2022-11-20T17:24:56;5.20;99.90
59999;DHT22;45859;51.378;6.736;2022-11-20T17:27:22;5.20;99.90
59999;DHT22;45859;51.378;6.736;2022-11-20T17:29:48;5.20;99.90
59999;DHT22;45859;51.378;6.736;2022-11-20T17:32:13;5.20;99.90
59999;DHT22;45859;51.378;6.736;2022-11-20T17:34:39;5.30;99.90
59999;DHT22;45859;51.378;6.736;2022-11-20T17:37:05;5.30;99.90
59999;DHT22;45859;51.378;6.736;2022-11-20T17:39:31;5.30;99.90
59999;DHT22;45859;51.378;6.736;2022-11-20T17:41:57;5.30;99.90
59999;DHT22;45859;51.378;6.736;2022-11-20T17:44:41;5.30;99.90
59999;DHT22;45859;51.378;6.736;2022-11-20T17:47:08;5.40;99.90